METAR Data
IDs: Format: Raw Decoded Include TAF

Data at: 1316 UTC 16 Oct 2018

PAKI 161256Z AUTO 08010KT 10SM -RA BKN024 OVC033 07/07 A2898 RMK AO2 SLP816 T00720067 PNO $
PAKI 161156Z AUTO 07013KT 10SM -RA OVC050 07/06 A2898 RMK AO2 SLP816 6//// 7//// T00720061 10078 20067 58002 PNO $
PAKI 161116Z AUTO 07011KT 10SM RA FEW019 SCT030 OVC046 07/06 A2899 RMK AO2 PNO $
PAKI 161104Z AUTO 07009KT 7SM RA FEW016 BKN022 OVC035 07/06 A2899 RMK AO2 PNO $
PAKI 161056Z AUTO 07009KT 6SM RA BR FEW022 BKN032 OVC048 07/06 A2899 RMK AO2 SLP819 T00670061 PNO $
PAKI 161049Z AUTO 07009KT 9SM RA FEW014 BKN021 OVC043 07/06 A2899 RMK AO2 PNO $
PAKI 160956Z AUTO 07011KT 10SM -RA FEW026 SCT034 OVC046 07/06 A2899 RMK AO2 SLP818 T00670056 PNO $
PAKI 160856Z AUTO 05014KT 10SM -RA SCT039 OVC065 07/06 A2899 RMK AO2 RAB52 SLP818 6//// T00670056 401060061 58003 PNO $
PAKI 160756Z AUTO 06011KT 10SM SCT037 BKN048 OVC065 07/06 A2899 RMK AO2 RAE50 SLP820 T00720061 PNO $
PAKI 160656Z AUTO 08011KT 10SM -RA OVC039 07/06 A2901 RMK AO2 RAB34 SLP825 T00720061 PNO $
PAKI 160556Z AUTO 05014KT 10SM BKN039 OVC050 08/06 A2900 RMK AO2 SLP820 6//// T00780061 10106 20072 56009 PNO $
PAKI 160456Z AUTO 05015KT 10SM FEW043 OVC055 08/06 A2900 RMK AO2 RAB41E54 SLP820 T00780061 PNO $
PAKI 160356Z AUTO 05014KT 10SM OVC043 08/07 A2901 RMK AO2 RAE55 SLP824 T00780067 PNO $
PAKI 160256Z AUTO 07013KT 10SM RA BKN044 BKN060 09/07 A2902 RMK AO2 RAB42 SLP829 6//// T00890067 55014 PNO $
PAKI 160156Z AUTO 06015KT 10SM SCT050 BKN070 10/06 A2902 RMK AO2 SLP829 T01000061 PNO $
PAKI 160056Z AUTO 07013KT 10SM OVC070 11/06 A2904 RMK AO2 RAB15E27 SLP836 T01060061 PNO $
PAKI 152356Z AUTO 07015KT 10SM OVC041 10/06 A2906 RMK AO2 SLP843 6//// T01000061 10106 20067 56016 PNO $
PAKI 152256Z AUTO 08014KT 10SM SCT055 09/06 A2908 RMK AO2 SLP847 T00890056 PNO $
PAKI 152156Z AUTO 08018KT 10SM SCT060 SCT100 09/06 A2909 RMK AO2 SLP852 T00890056 PNO $
PAKI 152056Z AUTO 07015G21KT 10SM FEW048 08/06 A2911 RMK AO2 SLP859 6//// T00830056 58006 PNO $
PAKI 152009Z AUTO 07016KT 10SM BKN031 BKN038 BKN049 07/05 A2912 RMK AO2 PNO $
PAKI 151956Z AUTO 07016KT 10SM BKN029 OVC049 07/05 A2912 RMK AO2 SLP863 T00720050 PNO $
PAKI 151944Z AUTO 08016KT 10SM SCT029 SCT040 OVC049 07/05 A2912 RMK AO2 PNO $
PAKI 151856Z AUTO 07017KT 10SM BKN027 OVC044 07/05 A2913 RMK AO2 SLP865 T00720050 PNO $
PAKI 151852Z AUTO 07018KT 10SM BKN027 OVC044 07/05 A2913 RMK AO2 PNO $
PAKI 151756Z AUTO 07020KT 10SM FEW029 SCT047 OVC055 07/05 A2913 RMK AO2 PK WND 07026/1715 RAE31 SLP864 6//// T00670050 10067 20061 56008 PNO $
PAKI 151743Z AUTO 07019KT 10SM SCT029 OVC055 07/05 A2912 RMK AO2 PK WND 07026/1715 RAE31 PNO $
PAKI 151732Z AUTO 07020KT 10SM BKN029 OVC060 07/05 A2913 RMK AO2 PK WND 07026/1715 RAE31 PNO $
PAKI 151656Z AUTO 07018G23KT 10SM -RA OVC031 07/05 A2913 RMK AO2 PK WND 06026/1604 RAB56 SLP867 T00670050 PNO $
PAKI 151556Z AUTO 07021G26KT 10SM OVC035 07/05 A2914 RMK AO2 PK WND 06028/1536 RAE31 SLP868 T00670050 PNO $
PAKI 151456Z AUTO 06022KT 10SM -RA OVC039 06/05 A2915 RMK AO2 PK WND 06028/1440 SLP872 6//// T00610050 58019 PNO $
PAKI 151413Z AUTO 06021G26KT 9SM -RA FEW023 OVC031 06/05 A2917 RMK AO2 PK WND 06026/1411 PNO $
PAKI 151356Z AUTO 06020G25KT 9SM -RA BKN027 OVC033 06/05 A2918 RMK AO2 SLP883 T00610050 PNO $
PAKI 151352Z AUTO 06019G25KT 10SM -RA SCT027 OVC033 06/05 A2918 RMK AO2 PNO $
PAKI 151331Z AUTO 05020G24KT 6SM -RA BR BKN029 OVC036 06/05 A2918 RMK AO2 PNO $
PAKI 151256Z AUTO 06021G24KT 10SM -RA BKN033 OVC041 06/05 A2920 RMK AO2 PK WND 07027/1213 SLP891 T00610050 PNO $
PAKI 151156Z AUTO 06018G25KT 10SM -RA OVC035 07/04 A2923 RMK AO2 SLP900 6//// 7//// T00670044 10072 20061 56020 PNO $
PAKI 151056Z AUTO 06017G23KT 10SM -RA OVC040 07/05 A2925 RMK AO2 SLP905 T00670050 PNO $
PAKI 150956Z AUTO 06020KT 10SM -RA BKN039 OVC049 07/05 A2927 RMK AO2 SLP912 T00670050 PNO $
PAKI 150856Z AUTO 06018KT 10SM -RA OVC044 07/04 A2929 RMK AO2 RAB12 SLP920 6//// T00670044 400890061 56016 PNO $
PAKI 150756Z AUTO 05017KT 10SM BKN060 OVC075 07/04 A2929 RMK AO2 RAE47 SLP921 T00720044 PNO $
PAKI 150656Z AUTO 06018KT 10SM -RA OVC060 07/04 A2932 RMK AO2 PK WND 07026/0635 RAB32 SLP930 T00720044 PNO $
PAKI 150556Z AUTO 06019KT 10SM FEW060 BKN090 BKN120 07/04 A2934 RMK AO2 SLP936 6//// T00720039 10089 20072 58009 PNO $
PAKI 150456Z AUTO 06017G22KT 10SM OVC100 08/04 A2935 RMK AO2 SLP939 T00780039 PNO $
PAKI 150356Z AUTO 07015KT 10SM FEW075 SCT090 08/04 A2936 RMK AO2 SLP944 T00780044 PNO $
PAKI 150256Z AUTO 08018KT 10SM BKN100 08/04 A2937 RMK AO2 SLP946 6//// T00830044 56018 PNO $
PAKI 150156Z AUTO 08019G22KT 10SM CLR 08/06 A2938 RMK AO2 SLP952 T00830056 PNO $